Time;durP1;ratioP1;P1;durP2;ratioP2;P2;SDS_P1;SDS_P2;PMS_P1;PMS_P2;Temp;Humidity;BMP_temperature;BMP_pressure;BME280_temperature;BME280_humidity;BME280_pressure;Samples;Min_cycle;Max_cycle;Signal;HPM_P1;HPM_P2
2021/10/02 00:45:23;;;;;;;;;;;;;;;5.23;93.90;98589.17;1784763;80;20416;-84
2021/10/02 00:47:48;;;;;;;;;;;;;;;5.25;93.16;98590.28;1784682;79;20629;-84
2021/10/02 00:50:14;;;;;;;;;;;;;;;5.20;93.76;98591.49;1730568;80;20155;-84
2021/10/02 00:52:41;;;;;;;;;;;;;;;5.18;93.26;98592.25;1784726;79;21888;-83
2021/10/02 00:55:07;;;;;;;;;;;;;;;5.20;92.50;98583.43;1784774;80;20129;-83
2021/10/02 00:57:33;;;;;;;;;;;;;;;5.16;94.21;98580.41;1785368;79;20140;-84
2021/10/02 00:59:59;;;;;;;;;;;;;;;5.18;93.80;98582.85;1784405;80;20156;-83
2021/10/02 01:02:32;;;;;;;;;;;;;;;5.18;94.05;98578.82;1723272;83;20145;-84
2021/10/02 01:05:01;;;;;;;;;;;;;;;5.16;93.54;98578.23;1738445;81;21157;-83
2021/10/02 01:07:31;;;;;;;;;;;;;;;5.12;94.22;98577.05;1738556;82;20160;-84
2021/10/02 01:10:20;;;;;;;;;;;;;;;5.13;93.36;98574.16;1738202;81;20153;-84
2021/10/02 01:12:58;;;;;;;;;;;;;;;5.08;93.53;98574.02;1738332;82;20443;-83
2021/10/02 01:15:33;;;;;;;;;;;;;;;5.10;93.34;98571.91;1738317;81;20173;-83
2021/10/02 01:18:01;;;;;;;;;;;;;;;5.15;93.14;98573.39;1737957;82;21157;-83
2021/10/02 01:20:43;;;;;;;;;;;;;;;5.20;92.94;98574.03;1738276;81;20132;-83
2021/10/02 01:23:33;;;;;;;;;;;;;;;5.18;93.34;98573.45;1738105;82;20416;-83
2021/10/02 01:26:05;;;;;;;;;;;;;;;5.18;92.27;98572.11;1738366;81;20136;-84
2021/10/02 01:28:33;;;;;;;;;;;;;;;5.11;91.93;98566.83;1738370;82;20145;-83
2021/10/02 01:31:05;;;;;;;;;;;;;;;5.07;93.08;98565.67;1738278;81;22792;-83
2021/10/02 01:33:49;;;;;;;;;;;;;;;5.04;92.76;98561.59;1737280;82;20416;-83
2021/10/02 01:36:25;;;;;;;;;;;;;;;4.96;92.29;98558.41;1714697;82;20219;-83
2021/10/02 01:47:16;;;;;;;;;;;;;;;4.93;93.03;98555.64;1714966;82;20222;-83
2021/10/02 01:49:47;;;;;;;;;;;;;;;4.99;92.63;98553.91;1738189;81;20175;-83
2021/10/02 01:52:14;;;;;;;;;;;;;;;4.94;92.38;98555.11;1712711;82;20335;-83
2021/10/02 01:54:41;;;;;;;;;;;;;;;4.95;92.03;98560.25;1738449;81;20104;-83
2021/10/02 01:57:07;;;;;;;;;;;;;;;4.88;92.80;98549.34;1738276;82;21138;-84
2021/10/02 01:59:32;;;;;;;;;;;;;;;4.87;93.19;98547.19;1738184;81;20190;-83
2021/10/02 02:01:58;;;;;;;;;;;;;;;4.89;93.16;98548.30;1738230;81;20229;-84
2021/10/02 02:04:24;;;;;;;;;;;;;;;4.89;92.56;98546.42;1738318;82;20183;-83
2021/10/02 02:06:50;;;;;;;;;;;;;;;4.86;91.97;98546.86;1738347;82;20230;-83
2021/10/02 02:09:16;;;;;;;;;;;;;;;4.81;92.92;98539.52;1738625;82;21144;-83
2021/10/02 02:11:43;;;;;;;;;;;;;;;4.81;92.55;98542.20;1738964;82;20301;-83
2021/10/02 02:14:10;;;;;;;;;;;;;;;4.80;92.59;98539.22;1738375;82;20132;-84
2021/10/02 02:16:36;;;;;;;;;;;;;;;4.77;93.18;98534.81;1738345;82;20434;-83
2021/10/02 02:19:02;;;;;;;;;;;;;;;4.71;93.53;98533.07;1711148;82;20242;-83
2021/10/02 02:21:27;;;;;;;;;;;;;;;4.69;92.91;98526.56;1738040;82;21104;-84
2021/10/02 02:23:54;;;;;;;;;;;;;;;4.71;93.60;98525.02;1738219;82;20225;-84
2021/10/02 02:26:20;;;;;;;;;;;;;;;4.69;94.40;98525.75;1738262;82;20153;-83
2021/10/02 02:28:46;;;;;;;;;;;;;;;4.69;93.99;98528.43;1738281;82;20214;-83
2021/10/02 02:31:12;;;;;;;;;;;;;;;4.68;94.59;98524.93;1738272;82;20194;-84
2021/10/02 02:33:38;;;;;;;;;;;;;;;4.75;94.56;98522.97;1738339;82;21180;-83
2021/10/02 02:36:04;;;;;;;;;;;;;;;4.83;93.43;98523.16;1735388;82;20161;-83
2021/10/02 02:38:30;;;;;;;;;;;;;;;4.86;94.01;98520.01;1738237;82;20145;-84
2021/10/02 02:40:56;;;;;;;;;;;;;;;4.92;92.45;98516.94;1738395;82;20175;-84
2021/10/02 02:43:22;;;;;;;;;;;;;;;4.90;93.36;98510.45;1735695;82;20162;-83
2021/10/02 02:45:50;;;;;;;;;;;;;;;4.94;94.60;98508.11;1738088;82;21094;-84
2021/10/02 02:48:20;;;;;;;;;;;;;;;5.01;93.56;98509.65;1738060;82;20396;-83
2021/10/02 02:50:51;;;;;;;;;;;;;;;5.08;94.00;98509.55;1738299;82;20137;-83
2021/10/02 02:53:53;;;;;;;;;;;;;;;5.03;93.18;98504.04;1735643;82;20140;-83
2021/10/02 02:56:26;;;;;;;;;;;;;;;4.91;93.17;98501.34;1738438;82;20425;-83
2021/10/02 02:58:53;;;;;;;;;;;;;;;4.98;92.97;98505.28;1738433;82;21229;-83
2021/10/02 03:01:20;;;;;;;;;;;;;;;4.96;93.50;98508.73;1745790;81;20141;-83
2021/10/02 03:03:45;;;;;;;;;;;;;;;4.99;94.04;98509.59;1765458;81;20139;-83
2021/10/02 03:06:12;;;;;;;;;;;;;;;5.03;93.68;98508.88;1765733;81;20248;-83
2021/10/02 03:08:40;;;;;;;;;;;;;;;5.02;94.18;98509.94;1765443;81;20141;-83
2021/10/02 03:11:05;;;;;;;;;;;;;;;5.00;93.79;98506.67;1748175;81;20990;-83
2021/10/02 03:13:34;;;;;;;;;;;;;;;4.97;93.78;98502.30;1765394;81;20188;-84
2021/10/02 03:16:03;;;;;;;;;;;;;;;4.96;93.25;98499.33;1765300;81;20394;-83
2021/10/02 03:18:29;;;;;;;;;;;;;;;4.83;93.85;98503.03;1764500;81;20257;-83
2021/10/02 03:20:56;;;;;;;;;;;;;;;4.82;93.54;98505.42;1765327;81;20173;-84
2021/10/02 03:23:23;;;;;;;;;;;;;;;4.80;93.19;98499.47;1748784;81;21702;-83
2021/10/02 03:25:48;;;;;;;;;;;;;;;4.79;93.67;98511.27;1723429;81;20134;-83
2021/10/02 03:28:14;;;;;;;;;;;;;;;4.78;94.81;98501.55;1765554;81;20173;-84
2021/10/02 03:30:40;;;;;;;;;;;;;;;4.75;94.69;98502.02;1747905;81;20176;-83
2021/10/02 03:33:05;;;;;;;;;;;;;;;4.76;94.00;98502.31;1765635;81;20236;-83
2021/10/02 03:35:32;;;;;;;;;;;;;;;4.77;93.57;98495.36;1765399;81;21108;-83
2021/10/02 03:37:58;;;;;;;;;;;;;;;4.76;93.93;98496.94;1765445;81;20167;-83
2021/10/02 03:40:24;;;;;;;;;;;;;;;4.76;93.92;98495.06;1765874;81;20199;-83
2021/10/02 03:42:53;;;;;;;;;;;;;;;4.77;94.70;98487.30;1765561;81;20138;-83
2021/10/02 03:45:20;;;;;;;;;;;;;;;4.83;93.77;98496.31;1765366;81;20138;-83
2021/10/02 03:47:46;;;;;;;;;;;;;;;4.88;93.60;98479.00;1765464;81;21014;-83
2021/10/02 03:50:11;;;;;;;;;;;;;;;4.86;93.33;98487.78;1765216;81;20197;-83
2021/10/02 03:52:37;;;;;;;;;;;;;;;4.84;93.72;98489.89;1748381;81;20216;-83
2021/10/02 03:55:04;;;;;;;;;;;;;;;4.89;93.02;98484.66;1765408;81;20133;-83
2021/10/02 03:57:30;;;;;;;;;;;;;;;4.87;93.32;98486.77;1765636;81;20413;-83
2021/10/02 03:59:56;;;;;;;;;;;;;;;4.80;93.78;98485.52;1765580;81;21748;-83
2021/10/02 04:02:23;;;;;;;;;;;;;;;4.83;93.19;98490.95;1765454;81;20192;-82
2021/10/02 04:04:49;;;;;;;;;;;;;;;4.86;93.32;98489.66;1748415;81;20167;-83
2021/10/02 04:07:15;;;;;;;;;;;;;;;4.86;93.26;98481.59;1724264;81;20139;-83
2021/10/02 04:09:41;;;;;;;;;;;;;;;4.84;93.46;98488.55;1765796;81;20201;-83
2021/10/02 04:12:07;;;;;;;;;;;;;;;4.86;93.27;98481.07;1765845;81;21139;-83
2021/10/02 04:14:33;;;;;;;;;;;;;;;4.86;92.89;98483.75;1765919;81;20212;-83
2021/10/02 04:16:59;;;;;;;;;;;;;;;4.86;92.72;98491.00;1766136;81;20135;-83
2021/10/02 04:19:25;;;;;;;;;;;;;;;4.83;92.34;98486.91;1765647;81;20488;-83
2021/10/02 04:21:51;;;;;;;;;;;;;;;4.76;92.62;98492.38;1765636;81;20181;-83
2021/10/02 04:24:17;;;;;;;;;;;;;;;4.75;93.33;98485.38;1765529;81;21071;-83
2021/10/02 04:26:43;;;;;;;;;;;;;;;4.78;92.73;98492.15;1765658;81;20170;-83
2021/10/02 04:29:09;;;;;;;;;;;;;;;4.78;93.74;98488.12;1748299;81;20196;-83
2021/10/02 04:31:35;;;;;;;;;;;;;;;4.76;93.14;98482.98;1765655;81;20625;-82
2021/10/02 04:34:00;;;;;;;;;;;;;;;4.74;92.99;98480.25;1765642;81;20796;-83
2021/10/02 04:36:26;;;;;;;;;;;;;;;4.62;92.94;98481.58;1735295;81;21160;-83
2021/10/02 04:38:53;;;;;;;;;;;;;;;4.62;93.44;98477.55;1765573;81;20224;-83
2021/10/02 04:41:20;;;;;;;;;;;;;;;4.60;93.15;98481.48;1765533;81;20426;-83
2021/10/02 04:43:46;;;;;;;;;;;;;;;4.57;93.29;98485.46;1765712;81;20184;-83
2021/10/02 04:46:12;;;;;;;;;;;;;;;4.53;93.78;98478.93;1765448;81;20208;-83
2021/10/02 04:48:38;;;;;;;;;;;;;;;4.49;93.27;98483.10;1765431;81;21281;-83
2021/10/02 04:51:05;;;;;;;;;;;;;;;4.50;92.91;98487.42;1735504;81;20190;-83
2021/10/02 04:53:31;;;;;;;;;;;;;;;4.56;93.37;98487.03;1735990;81;20127;-83
2021/10/02 04:55:59;;;;;;;;;;;;;;;4.63;93.19;98486.42;1765505;81;20216;-83
2021/10/02 04:58:24;;;;;;;;;;;;;;;4.69;94.39;98481.45;1748424;81;20143;-83
2021/10/02 05:00:50;;;;;;;;;;;;;;;4.71;93.73;98483.41;1765488;81;21079;-83
2021/10/02 05:03:16;;;;;;;;;;;;;;;4.76;93.44;98486.20;1748290;81;20176;-83
2021/10/02 05:05:41;;;;;;;;;;;;;;;4.78;93.60;98482.22;1765750;81;20279;-83
2021/10/02 05:08:07;;;;;;;;;;;;;;;4.84;93.23;98476.98;1748464;81;20172;-83
2021/10/02 05:10:33;;;;;;;;;;;;;;;4.88;93.03;98490.27;1735605;81;20160;-82
2021/10/02 05:12:59;;;;;;;;;;;;;;;4.87;92.94;98482.73;1766040;81;21099;-83
2021/10/02 05:15:24;;;;;;;;;;;;;;;4.95;92.61;98481.55;1723417;81;20204;-83
2021/10/02 05:17:50;;;;;;;;;;;;;;;4.98;92.38;98485.95;1766121;81;20247;-83
2021/10/02 05:20:16;;;;;;;;;;;;;;;4.95;92.26;98477.52;1735549;81;20177;-83
2021/10/02 05:22:42;;;;;;;;;;;;;;;4.96;92.14;98488.06;1765703;81;20149;-83
2021/10/02 05:25:08;;;;;;;;;;;;;;;4.96;91.98;98477.84;1765636;81;21034;-83
2021/10/02 05:27:33;;;;;;;;;;;;;;;4.97;92.55;98478.95;1765517;81;20378;-83
2021/10/02 05:29:59;;;;;;;;;;;;;;;5.04;92.12;98481.00;1765547;81;20152;-83
2021/10/02 05:32:26;;;;;;;;;;;;;;;5.10;92.27;98484.60;1765605;81;20133;-83
2021/10/02 05:34:51;;;;;;;;;;;;;;;5.16;92.49;98485.02;1723824;81;20185;-83
2021/10/02 05:37:17;;;;;;;;;;;;;;;5.20;92.50;98483.48;1765567;81;21083;-83
2021/10/02 05:39:43;;;;;;;;;;;;;;;5.27;92.19;98491.45;1766029;81;20161;-84
2021/10/02 05:42:09;;;;;;;;;;;;;;;5.27;92.35;98488.75;1765659;81;20267;-83
2021/10/02 05:44:35;;;;;;;;;;;;;;;5.36;92.20;98488.69;1765646;81;20173;-83
2021/10/02 05:47:01;;;;;;;;;;;;;;;5.40;92.73;98493.91;1766138;81;20165;-83
2021/10/02 05:49:27;;;;;;;;;;;;;;;5.46;92.16;98501.02;1765334;81;21181;-83
2021/10/02 05:51:53;;;;;;;;;;;;;;;5.51;92.53;98501.14;1765530;81;20215;-83
2021/10/02 05:54:18;;;;;;;;;;;;;;;5.56;92.53;98489.69;1748387;81;20247;-83
2021/10/02 05:56:44;;;;;;;;;;;;;;;5.58;92.53;98491.61;1765683;81;20522;-83
2021/10/02 05:59:10;;;;;;;;;;;;;;;5.64;92.84;98492.02;1765625;81;20212;-83
2021/10/02 06:01:36;;;;;;;;;;;;;;;5.70;92.88;98497.77;1765629;81;21052;-83
2021/10/02 06:04:01;;;;;;;;;;;;;;;5.81;92.17;98496.95;1765882;81;20212;-83
2021/10/02 06:06:27;;;;;;;;;;;;;;;5.76;93.27;98498.18;1765345;81;20255;-83
2021/10/02 06:08:53;;;;;;;;;;;;;;;5.88;92.52;98504.34;1765720;81;20223;-83
2021/10/02 06:11:18;;;;;;;;;;;;;;;5.91;92.43;98504.45;1765399;81;20144;-83
2021/10/02 06:13:45;;;;;;;;;;;;;;;5.92;93.07;98501.52;1765882;81;21086;-83
2021/10/02 06:16:10;;;;;;;;;;;;;;;6.02;93.64;98504.12;1765355;81;20180;-83
2021/10/02 06:18:36;;;;;;;;;;;;;;;6.15;92.68;98509.20;1765651;81;20232;-83
2021/10/02 06:21:02;;;;;;;;;;;;;;;6.17;94.05;98505.77;1765239;81;20716;-83
2021/10/02 06:23:28;;;;;;;;;;;;;;;6.30;93.96;98501.97;1765521;81;20185;-83
2021/10/02 06:25:54;;;;;;;;;;;;;;;6.43;94.01;98501.69;1765272;81;21030;-83
2021/10/02 06:28:20;;;;;;;;;;;;;;;6.56;94.08;98497.34;1766149;81;20147;-83
2021/10/02 06:30:46;;;;;;;;;;;;;;;6.72;92.74;98503.28;1765419;81;20142;-83
2021/10/02 06:33:12;;;;;;;;;;;;;;;6.87;93.08;98510.00;1765513;81;20478;-83
2021/10/02 06:35:38;;;;;;;;;;;;;;;7.05;93.70;98498.45;1748035;81;20576;-83
2021/10/02 06:38:04;;;;;;;;;;;;;;;7.25;93.41;98489.86;1765573;81;21797;-83
2021/10/02 06:40:30;;;;;;;;;;;;;;;7.39;92.65;98493.58;1765293;81;20157;-83
2021/10/02 06:42:55;;;;;;;;;;;;;;;7.49;93.72;98487.79;1735701;81;20709;-83
2021/10/02 06:45:21;;;;;;;;;;;;;;;7.69;92.77;98489.97;1765473;81;20177;-83
2021/10/02 06:47:47;;;;;;;;;;;;;;;7.85;93.25;98495.01;1765508;81;20141;-83
2021/10/02 06:50:13;;;;;;;;;;;;;;;8.29;92.23;98482.33;1765362;81;21080;-83
2021/10/02 06:52:38;;;;;;;;;;;;;;;8.98;91.18;98485.72;1765475;81;20169;-83
2021/10/02 06:55:07;;;;;;;;;;;;;;;9.59;91.23;98482.09;1765646;81;20184;-83
2021/10/02 06:57:33;;;;;;;;;;;;;;;10.17;90.11;98479.66;1765692;81;20146;-84
2021/10/02 06:59:59;;;;;;;;;;;;;;;10.62;88.81;98478.71;1765461;81;20394;-83
2021/10/02 07:02:25;;;;;;;;;;;;;;;11.13;86.61;98487.70;1761531;81;21932;-83
2021/10/02 07:04:52;;;;;;;;;;;;;;;11.93;87.47;98480.23;1750165;82;20781;-83
2021/10/02 07:07:18;;;;;;;;;;;;;;;12.57;83.80;98480.76;1751224;82;20127;-84
2021/10/02 07:09:44;;;;;;;;;;;;;;;13.33;87.30;98478.85;1751654;82;20142;-84
2021/10/02 07:12:10;;;;;;;;;;;;;;;13.84;86.95;98475.58;1751339;82;20143;-84
2021/10/02 07:14:35;;;;;;;;;;;;;;;14.21;84.58;98472.70;1750414;82;21863;-84
2021/10/02 07:17:01;;;;;;;;;;;;;;;14.61;81.39;98479.02;1751176;82;20181;-84
2021/10/02 07:19:27;;;;;;;;;;;;;;;15.16;76.77;98481.16;1751170;82;20232;-84
2021/10/02 07:21:53;;;;;;;;;;;;;;;15.94;75.75;98474.85;1750980;82;20661;-84
2021/10/02 07:24:19;;;;;;;;;;;;;;;16.16;66.94;98478.25;1751704;82;20253;-84
2021/10/02 07:26:44;;;;;;;;;;;;;;;17.01;69.56;98475.30;1750962;82;21185;-84
2021/10/02 07:29:11;;;;;;;;;;;;;;;17.47;67.38;98477.69;1751611;82;20185;-84
2021/10/02 07:31:36;;;;;;;;;;;;;;;18.47;69.55;98484.56;1750208;82;20171;-84
2021/10/02 07:34:02;;;;;;;;;;;;;;;18.70;59.07;98479.77;1751360;82;20181;-84
2021/10/02 07:36:28;;;;;;;;;;;;;;;19.18;59.75;98481.55;1750917;82;20131;-84
2021/10/02 07:38:55;;;;;;;;;;;;;;;19.69;67.59;98477.92;1751553;82;21047;-84
2021/10/02 07:41:21;;;;;;;;;;;;;;;19.65;60.12;98472.28;1750009;82;20139;-84
2021/10/02 07:43:49;;;;;;;;;;;;;;;20.14;56.92;98467.20;1751428;82;20189;-84
2021/10/02 07:46:15;;;;;;;;;;;;;;;20.84;61.02;98467.59;1750696;82;20142;-84
2021/10/02 07:48:41;;;;;;;;;;;;;;;21.01;55.46;98467.44;1751449;82;20202;-84
2021/10/02 07:51:06;;;;;;;;;;;;;;;21.69;52.41;98465.16;1750079;82;21210;-84
2021/10/02 07:53:32;;;;;;;;;;;;;;;22.08;56.64;98464.91;1751286;82;20153;-84
2021/10/02 07:56:01;;;;;;;;;;;;;;;22.14;48.26;98466.30;1751191;82;20217;-85
2021/10/02 07:58:27;;;;;;;;;;;;;;;23.10;57.12;98465.69;1725514;82;20477;-84
2021/10/02 08:00:54;;;;;;;;;;;;;;;23.76;53.59;98463.19;1750991;82;20200;-85
2021/10/02 08:03:20;;;;;;;;;;;;;;;24.53;58.80;98457.75;1750712;81;21847;-86
2021/10/02 08:05:46;;;;;;;;;;;;;;;24.51;49.26;98451.16;1765168;81;20334;-85
2021/10/02 08:08:14;;;;;;;;;;;;;;;25.01;58.08;98450.27;1765390;81;20212;-86
2021/10/02 08:10:42;;;;;;;;;;;;;;;24.88;54.55;98446.05;1765212;81;20126;-85
2021/10/02 08:13:08;;;;;;;;;;;;;;;25.33;45.45;98450.15;1748564;81;20139;-85
2021/10/02 08:15:34;;;;;;;;;;;;;;;25.70;43.97;98445.47;1765168;81;21773;-85
2021/10/02 08:18:00;;;;;;;;;;;;;;;26.27;42.13;98441.70;1765370;81;20224;-86
2021/10/02 08:20:29;;;;;;;;;;;;;;;26.81;39.52;98444.67;1765316;81;20231;-87
2021/10/02 08:22:54;;;;;;;;;;;;;;;27.24;42.85;98447.42;1724080;81;20579;-84
2021/10/02 08:25:20;;;;;;;;;;;;;;;27.57;43.48;98440.22;1765263;81;20165;-85
2021/10/02 08:27:49;;;;;;;;;;;;;;;28.05;45.23;98434.73;1765331;81;21058;-87
2021/10/02 08:30:15;;;;;;;;;;;;;;;28.69;41.56;98437.17;1765217;81;20139;-87
2021/10/02 08:32:41;;;;;;;;;;;;;;;29.25;43.60;98436.66;1765347;81;20200;-85
2021/10/02 08:35:08;;;;;;;;;;;;;;;28.67;41.11;98434.77;1765459;81;20162;-85
2021/10/02 08:37:34;;;;;;;;;;;;;;;29.03;39.58;98432.98;1765390;81;20154;-86
2021/10/02 08:40:00;;;;;;;;;;;;;;;29.27;38.29;98434.27;1765362;81;21046;-85
2021/10/02 08:42:26;;;;;;;;;;;;;;;29.12;34.65;98424.24;1765367;81;20184;-85
2021/10/02 08:44:52;;;;;;;;;;;;;;;28.77;31.81;98436.02;1765517;81;20208;-86
2021/10/02 08:47:22;;;;;;;;;;;;;;;27.11;33.50;98438.34;1765221;81;20134;-85
2021/10/02 08:49:49;;;;;;;;;;;;;;;25.06;38.37;98441.49;1765482;81;20146;-85
2021/10/02 08:52:16;;;;;;;;;;;;;;;23.69;40.07;98438.68;1765223;81;21059;-85
2021/10/02 08:54:44;;;;;;;;;;;;;;;22.80;39.88;98443.28;1765468;81;20222;-86
2021/10/02 08:57:11;;;;;;;;;;;;;;;21.90;40.38;98438.89;1765372;81;20143;-86
2021/10/02 08:59:40;;;;;;;;;;;;;;;20.88;42.35;98437.44;1765500;81;20126;-84
2021/10/02 09:02:08;;;;;;;;;;;;;;;20.27;43.52;98441.98;1764850;81;20410;-84
2021/10/02 09:04:35;;;;;;;;;;;;;;;19.82;44.29;98448.58;1765603;81;21071;-84
2021/10/02 09:07:03;;;;;;;;;;;;;;;19.51;46.04;98448.84;1765271;81;20131;-84
2021/10/02 09:09:29;;;;;;;;;;;;;;;19.25;46.36;98434.59;1764989;81;20138;-84
2021/10/02 09:11:55;;;;;;;;;;;;;;;19.09;47.52;98443.11;1765422;81;20167;-86
2021/10/02 09:14:21;;;;;;;;;;;;;;;18.97;47.72;98450.64;1765702;81;20264;-84
2021/10/02 09:16:46;;;;;;;;;;;;;;;18.79;47.22;98444.31;1765304;81;21170;-85
2021/10/02 09:19:12;;;;;;;;;;;;;;;18.71;48.13;98441.58;1765592;81;20224;-85
2021/10/02 09:21:47;;;;;;;;;;;;;;;18.70;48.42;98444.08;1765422;81;20228;-84
2021/10/02 09:24:22;;;;;;;;;;;;;;;18.68;48.25;98449.09;1759642;81;20148;-84
2021/10/02 09:26:48;;;;;;;;;;;;;;;18.60;49.77;98443.23;1764699;81;20162;-86
2021/10/02 09:29:15;;;;;;;;;;;;;;;18.61;48.92;98448.16;1765577;81;21155;-85
2021/10/02 09:31:42;;;;;;;;;;;;;;;18.61;48.54;98444.85;1764660;81;20602;-85
2021/10/02 09:34:24;;;;;;;;;;;;;;;18.56;48.13;98437.36;1765542;81;20201;-84
2021/10/02 09:36:50;;;;;;;;;;;;;;;18.42;49.79;98437.49;1765428;81;20154;-84
2021/10/02 09:39:16;;;;;;;;;;;;;;;18.41;48.96;98449.59;1735765;81;20172;-84
2021/10/02 09:41:52;;;;;;;;;;;;;;;18.27;49.27;98442.87;1765360;81;21082;-84
2021/10/02 09:44:24;;;;;;;;;;;;;;;18.25;49.16;98441.02;1765485;81;20141;-84
2021/10/02 09:46:50;;;;;;;;;;;;;;;18.23;49.23;98441.09;1765269;81;20143;-85
2021/10/02 09:49:16;;;;;;;;;;;;;;;18.29;49.63;98436.52;1765556;81;20156;-84
2021/10/02 09:51:42;;;;;;;;;;;;;;;18.31;49.32;98432.89;1765516;81;20228;-84
2021/10/02 09:54:10;;;;;;;;;;;;;;;18.41;49.77;98432.33;1765515;81;21063;-83
2021/10/02 09:56:36;;;;;;;;;;;;;;;18.46;49.33;98426.70;1735547;81;20139;-84
2021/10/02 09:59:01;;;;;;;;;;;;;;;18.52;49.61;98432.25;1748394;81;20185;-83
2021/10/02 10:01:27;;;;;;;;;;;;;;;18.49;49.83;98426.86;1758436;81;20173;-83
2021/10/02 10:03:53;;;;;;;;;;;;;;;18.49;49.88;98430.97;1765478;81;20164;-83
2021/10/02 10:06:24;;;;;;;;;;;;;;;18.57;50.05;98433.48;1765192;81;20946;-84
2021/10/02 10:09:10;;;;;;;;;;;;;;;18.65;49.07;98431.87;1765580;81;20158;-84
2021/10/02 10:11:48;;;;;;;;;;;;;;;18.54;49.01;98432.20;1764893;81;20142;-84
2021/10/02 10:14:22;;;;;;;;;;;;;;;18.48;50.37;98426.62;1765625;81;20138;-85
2021/10/02 10:16:48;;;;;;;;;;;;;;;18.50;50.76;98429.03;1765322;81;20126;-85
2021/10/02 10:19:24;;;;;;;;;;;;;;;18.54;49.92;98428.08;1765735;81;21044;-84
2021/10/02 10:22:18;;;;;;;;;;;;;;;18.55;50.28;98427.52;1765340;81;20123;-84
2021/10/02 10:24:54;;;;;;;;;;;;;;;18.58;49.57;98426.86;1765221;81;20146;-84
2021/10/02 10:27:33;;;;;;;;;;;;;;;18.70;49.37;98426.23;1765284;81;20422;-83
2021/10/02 10:30:12;;;;;;;;;;;;;;;18.74;48.94;98419.80;1762823;81;20162;-84
2021/10/02 10:32:39;;;;;;;;;;;;;;;18.77;49.57;98426.56;1764557;81;21275;-84
2021/10/02 10:35:06;;;;;;;;;;;;;;;18.84;49.29;98429.64;1765467;81;20151;-84
2021/10/02 10:37:32;;;;;;;;;;;;;;;18.85;48.79;98429.88;1765217;81;20229;-84
2021/10/02 10:39:57;;;;;;;;;;;;;;;18.88;48.21;98431.42;1765579;81;20180;-84
2021/10/02 10:42:27;;;;;;;;;;;;;;;18.87;48.59;98437.22;1765519;81;20229;-84
2021/10/02 10:44:55;;;;;;;;;;;;;;;18.90;47.36;98428.92;1765419;81;21814;-84
2021/10/02 10:47:20;;;;;;;;;;;;;;;18.86;47.80;98422.68;1748151;81;20166;-84
2021/10/02 10:49:47;;;;;;;;;;;;;;;18.77;48.23;98410.90;1765309;81;20176;-84
2021/10/02 10:52:15;;;;;;;;;;;;;;;18.77;48.64;98417.77;1765322;81;20526;-85
2021/10/02 10:54:42;;;;;;;;;;;;;;;18.77;48.30;98411.47;1765540;81;20151;-84
2021/10/02 10:57:28;;;;;;;;;;;;;;;18.78;48.64;98405.65;1748249;81;21062;-84
2021/10/02 10:59:54;;;;;;;;;;;;;;;18.79;48.16;98399.59;1765370;81;20140;-85
2021/10/02 11:02:48;;;;;;;;;;;;;;;18.87;47.93;98398.78;1765322;81;20193;-85
2021/10/02 11:05:39;;;;;;;;;;;;;;;18.84;47.38;98393.37;1765177;81;20134;-84
2021/10/02 11:08:09;;;;;;;;;;;;;;;18.84;47.60;98393.37;1765268;81;20445;-84
2021/10/02 11:10:49;;;;;;;;;;;;;;;18.89;47.05;98389.67;1765335;81;21942;-84
2021/10/02 11:13:29;;;;;;;;;;;;;;;18.91;47.68;98386.59;1765675;81;20138;-84
2021/10/02 11:15:58;;;;;;;;;;;;;;;18.95;47.26;98386.17;1765448;81;20138;-84
2021/10/02 11:18:43;;;;;;;;;;;;;;;18.99;46.89;98382.47;1765656;81;20098;-85
2021/10/02 11:21:10;;;;;;;;;;;;;;;18.99;47.05;98386.59;1765216;81;20264;-84
2021/10/02 11:24:00;;;;;;;;;;;;;;;19.00;47.44;98382.70;1723611;81;21056;-84
2021/10/02 11:26:28;;;;;;;;;;;;;;;19.00;47.91;98384.64;1765264;81;20162;-84
2021/10/02 11:29:06;;;;;;;;;;;;;;;19.08;47.72;98378.33;1764315;81;20138;-84
2021/10/02 11:31:34;;;;;;;;;;;;;;;19.12;47.18;98380.65;1765690;81;20207;-84
2021/10/02 11:34:00;;;;;;;;;;;;;;;19.10;46.48;98376.86;1765598;81;20398;-84
2021/10/02 11:36:34;;;;;;;;;;;;;;;19.08;47.50;98387.38;1765215;81;21785;-84
2021/10/02 11:39:12;;;;;;;;;;;;;;;19.11;47.07;98383.16;1765587;81;20143;-84
2021/10/02 11:41:48;;;;;;;;;;;;;;;19.05;47.60;98372.91;1765558;81;20441;-84
2021/10/02 11:44:36;;;;;;;;;;;;;;;19.05;47.28;98372.91;1765769;81;20362;-84
2021/10/02 11:47:25;;;;;;;;;;;;;;;19.04;47.72;98374.61;1765415;81;20441;-84
2021/10/02 11:50:11;;;;;;;;;;;;;;;19.07;48.19;98376.72;1759696;81;21036;-84
2021/10/02 11:52:40;;;;;;;;;;;;;;;19.16;46.84;98375.56;1765208;81;20138;-85
2021/10/02 11:55:26;;;;;;;;;;;;;;;19.13;47.61;98374.02;1745813;81;20485;-84
2021/10/02 11:58:10;;;;;;;;;;;;;;;19.11;47.81;98377.09;1756829;81;20591;-84
2021/10/02 12:00:54;;;;;;;;;;;;;;;19.12;46.97;98369.66;1765549;81;20158;-84
2021/10/02 12:03:25;;;;;;;;;;;;;;;19.13;48.04;98370.70;1765292;81;22079;-83
2021/10/02 12:05:50;;;;;;;;;;;;;;;19.17;48.19;98369.50;1737979;82;20141;-83
2021/10/02 12:08:17;;;;;;;;;;;;;;;19.18;47.81;98366.98;1737916;82;20144;-84
2021/10/02 12:11:01;;;;;;;;;;;;;;;19.20;47.44;98366.09;1738180;82;20183;-85
2021/10/02 12:13:30;;;;;;;;;;;;;;;19.24;46.35;98362.13;1738087;82;20141;-84
2021/10/02 12:16:02;;;;;;;;;;;;;;;19.22;47.08;98371.25;1738055;82;21238;-84
2021/10/02 12:19:01;;;;;;;;;;;;;;;19.26;47.97;98366.73;1735248;82;20220;-84
2021/10/02 12:21:29;;;;;;;;;;;;;;;19.30;47.04;98361.61;1738430;82;20140;-84
2021/10/02 12:24:14;;;;;;;;;;;;;;;19.33;47.29;98360.97;1738576;82;20132;-84
2021/10/02 12:26:46;;;;;;;;;;;;;;;19.35;47.54;98354.56;1738414;82;20439;-85
2021/10/02 12:29:15;;;;;;;;;;;;;;;19.37;47.47;98359.73;1735754;82;21758;-84
2021/10/02 12:31:52;;;;;;;;;;;;;;;19.35;47.35;98356.52;1738396;82;20424;-84
2021/10/02 12:34:21;;;;;;;;;;;;;;;19.39;47.07;98354.70;1735773;82;20144;-84
2021/10/02 12:36:49;;;;;;;;;;;;;;;19.37;47.08;98352.29;1736011;82;20396;-84
2021/10/02 12:39:17;;;;;;;;;;;;;;;19.39;47.97;98350.58;1738605;82;20100;-85
2021/10/02 12:41:44;;;;;;;;;;;;;;;19.38;47.19;98355.84;1738350;82;21143;-85
2021/10/02 12:44:22;;;;;;;;;;;;;;;19.37;47.22;98352.86;1738400;82;20167;-84
2021/10/02 12:46:48;;;;;;;;;;;;;;;19.40;46.30;98359.89;1738405;82;20140;-85
2021/10/02 12:49:14;;;;;;;;;;;;;;;19.32;46.39;98356.61;1738548;82;20166;-84
2021/10/02 12:51:40;;;;;;;;;;;;;;;19.30;46.44;98348.44;1735683;82;20172;-84
2021/10/02 12:54:08;;;;;;;;;;;;;;;19.26;46.65;98344.18;1738394;82;21083;-84
2021/10/02 12:56:33;;;;;;;;;;;;;;;19.25;46.93;98345.89;1738587;82;20153;-85
2021/10/02 12:59:15;;;;;;;;;;;;;;;19.28;47.08;98346.02;1738434;82;20199;-84
2021/10/02 13:01:44;;;;;;;;;;;;;;;19.30;47.43;98338.25;1738504;82;20518;-85
2021/10/02 13:04:16;;;;;;;;;;;;;;;19.34;45.98;98337.84;1743565;81;20138;-85
2021/10/02 13:06:51;;;;;;;;;;;;;;;19.30;46.74;98338.83;1765366;81;21781;-85
2021/10/02 13:09:16;;;;;;;;;;;;;;;19.31;46.69;98336.31;1764988;81;20135;-85
2021/10/02 13:11:42;;;;;;;;;;;;;;;19.28;46.59;98331.48;1765575;81;20192;-85
2021/10/02 13:14:08;;;;;;;;;;;;;;;19.26;46.50;98336.51;1765690;81;20173;-85
2021/10/02 13:16:34;;;;;;;;;;;;;;;19.22;46.70;98333.59;1765636;81;20169;-85
2021/10/02 13:19:00;;;;;;;;;;;;;;;19.21;46.91;98329.23;1765761;81;21153;-84
2021/10/02 13:21:25;;;;;;;;;;;;;;;19.18;46.88;98335.40;1747964;81;20173;-84
2021/10/02 13:23:51;;;;;;;;;;;;;;;19.14;47.68;98336.64;1748151;81;20251;-84
2021/10/02 13:26:19;;;;;;;;;;;;;;;19.13;46.97;98343.80;1765342;81;20148;-84
2021/10/02 13:28:48;;;;;;;;;;;;;;;19.14;47.42;98341.30;1765353;81;20139;-84
2021/10/02 13:31:19;;;;;;;;;;;;;;;19.10;46.92;98333.48;1764465;81;21071;-84
2021/10/02 13:33:47;;;;;;;;;;;;;;;19.07;47.13;98330.03;1765348;81;20390;-84
2021/10/02 13:36:28;;;;;;;;;;;;;;;19.06;47.35;98328.42;1765296;81;20138;-84
2021/10/02 13:38:54;;;;;;;;;;;;;;;19.07;47.08;98336.33;1765405;81;20189;-85
2021/10/02 13:41:20;;;;;;;;;;;;;;;19.03;47.88;98338.10;1765295;81;20426;-84
2021/10/02 13:43:55;;;;;;;;;;;;;;;18.99;48.00;98328.92;1765416;81;21849;-84
2021/10/02 13:46:38;;;;;;;;;;;;;;;18.99;47.84;98322.05;1765202;81;20435;-84
2021/10/02 13:49:08;;;;;;;;;;;;;;;19.00;47.34;98329.16;1765720;81;20150;-84
2021/10/02 13:51:34;;;;;;;;;;;;;;;18.96;47.57;98321.31;1765559;81;20491;-85